createdAt,value
2023-03-01T00:00:53.316Z,100.00
2023-03-01T00:01:57.206Z,100.00
2023-03-01T00:03:03.862Z,100.00
2023-03-01T00:04:07.875Z,100.00
2023-03-01T00:05:14.706Z,100.00
2023-03-01T00:06:19.013Z,100.00
2023-03-01T00:07:24.932Z,100.00
2023-03-01T00:08:29.057Z,100.00
2023-03-01T00:09:35.425Z,100.00
2023-03-01T00:10:41.830Z,100.00
2023-03-01T00:11:48.625Z,100.00
2023-03-01T00:12:52.161Z,100.00
2023-03-01T00:14:00.818Z,100.00
2023-03-01T00:15:06.484Z,100.00
2023-03-01T00:16:14.502Z,100.00
2023-03-01T00:17:19.745Z,100.00
2023-03-01T00:18:23.834Z,100.00
2023-03-01T00:19:30.265Z,100.00
2023-03-01T00:20:33.970Z,100.00
2023-03-01T00:21:40.580Z,100.00
2023-03-01T00:22:43.884Z,100.00
2023-03-01T00:23:50.204Z,100.00
2023-03-01T00:24:54.036Z,100.00
2023-03-01T00:26:02.612Z,100.00
2023-03-01T00:27:05.793Z,100.00
2023-03-01T00:28:12.770Z,100.00
2023-03-01T00:29:16.156Z,100.00
2023-03-01T00:30:23.324Z,100.00
2023-03-01T00:31:29.054Z,100.00
2023-03-01T00:32:35.122Z,100.00
2023-03-01T00:33:37.920Z,100.00
2023-03-01T00:34:43.987Z,100.00
2023-03-01T00:35:47.419Z,100.00
2023-03-01T00:36:53.743Z,100.00
2023-03-01T00:37:59.470Z,100.00
2023-03-01T00:39:07.323Z,100.00
2023-03-01T00:40:12.467Z,100.00
2023-03-01T00:41:23.921Z,100.00
2023-03-01T00:42:26.854Z,100.00
2023-03-01T00:43:32.937Z,100.00
2023-03-01T00:44:36.768Z,100.00
2023-03-01T00:45:42.580Z,100.00
2023-03-01T00:46:46.192Z,100.00
2023-03-01T00:47:53.590Z,100.00
2023-03-01T00:48:56.779Z,100.00
2023-03-01T00:50:02.938Z,100.00
2023-03-01T00:51:10.736Z,100.00
2023-03-01T00:52:16.720Z,100.00
2023-03-01T00:53:19.970Z,100.00
2023-03-01T00:54:25.958Z,100.00
2023-03-01T00:55:29.316Z,100.00
2023-03-01T00:56:37.719Z,100.00
2023-03-01T00:57:40.723Z,100.00
2023-03-01T00:58:46.833Z,100.00
2023-03-01T00:59:50.362Z,100.00
2023-03-01T01:00:56.633Z,100.00
2023-03-01T01:02:01.099Z,100.00
2023-03-01T01:03:07.790Z,100.00
2023-03-01T01:04:16.281Z,100.00
2023-03-01T01:05:22.537Z,100.00
2023-03-01T01:06:30.347Z,100.00
2023-03-01T01:07:34.160Z,100.00
2023-03-01T01:08:40.311Z,100.00
2023-03-01T01:09:43.551Z,100.00
2023-03-01T01:10:50.055Z,100.00
2023-03-01T01:11:56.082Z,100.00
2023-03-01T01:13:02.438Z,100.00
2023-03-01T01:14:05.311Z,100.00
2023-03-01T01:15:14.446Z,100.00
2023-03-01T01:16:19.220Z,100.00
2023-03-01T01:17:25.580Z,100.00
2023-03-01T01:18:28.968Z,100.00
2023-03-01T01:19:35.213Z,100.00
2023-03-01T01:20:39.343Z,100.00
2023-03-01T01:21:46.134Z,100.00
2023-03-01T01:22:49.661Z,100.00
2023-03-01T01:23:56.486Z,100.00
2023-03-01T01:25:00.240Z,100.00
2023-03-01T01:26:12.279Z,100.00
2023-03-01T01:27:18.584Z,100.00
2023-03-01T01:28:24.705Z,100.00
2023-03-01T01:29:28.114Z,100.00
2023-03-01T01:30:34.756Z,100.00
2023-03-01T01:31:39.870Z,100.00
2023-03-01T01:32:46.283Z,100.00
2023-03-01T01:33:50.227Z,100.00
2023-03-01T01:34:56.639Z,100.00
2023-03-01T01:36:00.308Z,100.00
2023-03-01T01:37:09.414Z,100.00
2023-03-01T01:38:12.855Z,100.00
2023-03-01T01:39:19.290Z,100.00
2023-03-01T01:40:22.724Z,100.00
2023-03-01T01:41:30.453Z,100.00
2023-03-01T01:42:37.107Z,100.00
2023-03-01T01:43:45.863Z,100.00
2023-03-01T01:44:49.835Z,100.00
2023-03-01T01:45:59.703Z,100.00
2023-03-01T01:47:06.349Z,100.00
2023-03-01T01:48:17.799Z,100.00
2023-03-01T01:49:33.559Z,100.00
2023-03-01T01:50:40.342Z,100.00
2023-03-01T01:51:50.473Z,100.00
2023-03-01T01:52:55.416Z,100.00
2023-03-01T01:54:06.239Z,100.00
2023-03-01T01:55:12.460Z,100.00
2023-03-01T01:56:20.374Z,100.00
2023-03-01T01:57:29.569Z,100.00
2023-03-01T01:58:38.020Z,100.00
2023-03-01T01:59:44.412Z,100.00
2023-03-01T02:00:51.891Z,100.00
2023-03-01T02:01:58.386Z,100.00
2023-03-01T02:03:05.070Z,100.00
2023-03-01T02:04:11.655Z,100.00
2023-03-01T02:05:22.823Z,100.00
2023-03-01T02:06:33.460Z,100.00
2023-03-01T02:07:38.824Z,100.00
2023-03-01T02:08:49.048Z,100.00
2023-03-01T02:09:57.553Z,100.00
2023-03-01T02:11:05.698Z,100.00
2023-03-01T02:12:09.039Z,100.00
2023-03-01T02:13:16.145Z,100.00
2023-03-01T02:14:23.315Z,100.00
2023-03-01T02:15:29.771Z,100.00
2023-03-01T02:16:34.773Z,100.00
2023-03-01T02:17:42.519Z,100.00
2023-03-01T02:18:47.286Z,100.00
2023-03-01T02:20:08.990Z,100.00
2023-03-01T02:21:27.437Z,100.00
2023-03-01T02:22:37.029Z,100.00
2023-03-01T02:23:40.565Z,100.00
2023-03-01T02:24:57.634Z,100.00
2023-03-01T02:26:08.877Z,100.00
2023-03-01T02:27:15.327Z,100.00
2023-03-01T02:28:46.483Z,100.00
2023-03-01T02:29:53.086Z,100.00
2023-03-01T02:31:11.160Z,100.00
2023-03-01T02:32:17.037Z,100.00
2023-03-01T02:33:22.909Z,100.00
2023-03-01T02:34:30.716Z,100.00
2023-03-01T02:35:37.386Z,100.00
2023-03-01T02:36:47.269Z,100.00
2023-03-01T02:37:51.281Z,100.00
2023-03-01T02:39:01.194Z,100.00
2023-03-01T02:40:13.064Z,100.00
2023-03-01T02:41:22.618Z,100.00
2023-03-01T02:42:33.072Z,100.00
2023-03-01T02:43:40.292Z,100.00
2023-03-01T02:44:47.240Z,100.00
2023-03-01T02:45:55.593Z,100.00
2023-03-01T02:47:02.671Z,100.00
2023-03-01T02:48:08.580Z,100.00
2023-03-01T02:49:27.847Z,100.00
2023-03-01T02:50:58.490Z,100.00
2023-03-01T02:52:28.487Z,100.00
2023-03-01T02:53:41.986Z,100.00
2023-03-01T02:54:54.803Z,100.00
2023-03-01T02:55:58.634Z,100.00
2023-03-01T02:57:06.892Z,100.00
2023-03-01T02:58:11.385Z,100.00
2023-03-01T02:59:34.257Z,100.00
2023-03-01T03:00:46.931Z,100.00
2023-03-01T03:01:54.377Z,100.00
2023-03-01T03:02:59.025Z,100.00
2023-03-01T03:04:06.262Z,100.00
2023-03-01T03:05:13.216Z,100.00
2023-03-01T03:06:19.479Z,100.00
2023-03-01T03:07:23.108Z,100.00
2023-03-01T03:08:29.837Z,100.00
2023-03-01T03:09:33.607Z,100.00
2023-03-01T03:10:44.432Z,100.00
2023-03-01T03:11:48.250Z,100.00
2023-03-01T03:14:39.292Z,100.00
2023-03-01T03:15:44.914Z,100.00
2023-03-01T03:16:51.948Z,100.00
2023-03-01T03:17:55.180Z,100.00
2023-03-01T03:19:06.038Z,100.00
2023-03-01T03:20:12.944Z,100.00
2023-03-01T03:21:18.686Z,100.00
2023-03-01T03:22:20.790Z,100.00
2023-03-01T03:23:25.908Z,100.00
2023-03-01T03:24:39.094Z,100.00
2023-03-01T03:25:44.137Z,100.00
2023-03-01T03:26:46.311Z,100.00
2023-03-01T03:27:57.917Z,100.00
2023-03-01T03:28:59.941Z,100.00
2023-03-01T03:30:04.869Z,100.00
2023-03-01T03:31:09.785Z,100.00
2023-03-01T03:32:14.693Z,100.00
2023-03-01T03:33:16.809Z,100.00
2023-03-01T03:34:21.458Z,100.00
2023-03-01T03:35:26.383Z,100.00
2023-03-01T03:36:33.885Z,100.00
2023-03-01T03:37:52.126Z,100.00
2023-03-01T03:38:56.839Z,100.00
2023-03-01T03:40:00.414Z,100.00
2023-03-01T03:41:08.537Z,100.00
2023-03-01T03:42:11.273Z,100.00
2023-03-01T03:43:17.736Z,100.00
2023-03-01T03:44:19.860Z,100.00
2023-03-01T03:45:24.905Z,100.00
2023-03-01T03:46:32.674Z,100.00
2023-03-01T03:47:35.004Z,100.00
2023-03-01T03:48:41.576Z,100.00
2023-03-01T03:49:43.989Z,100.00
2023-03-01T03:50:52.830Z,100.00
2023-03-01T03:51:58.145Z,100.00
2023-03-01T03:53:02.452Z,100.00
2023-03-01T03:54:07.164Z,100.00
2023-03-01T03:55:12.640Z,100.00
2023-03-01T03:56:17.454Z,100.00
2023-03-01T03:57:19.517Z,100.00
2023-03-01T03:58:26.381Z,100.00
2023-03-01T03:59:28.948Z,100.00
2023-03-01T04:00:33.780Z,100.00
2023-03-01T04:01:41.090Z,100.00
2023-03-01T04:02:43.999Z,100.00
2023-03-01T04:03:49.147Z,100.00
2023-03-01T04:04:51.219Z,100.00
2023-03-01T04:05:56.587Z,100.00
2023-03-01T04:06:58.656Z,100.00
2023-03-01T04:08:08.659Z,100.00
2023-03-01T04:09:10.709Z,100.00
2023-03-01T04:10:17.589Z,100.00
2023-03-01T04:11:32.436Z,100.00
2023-03-01T04:12:37.205Z,100.00
2023-03-01T04:13:43.307Z,100.00
2023-03-01T04:14:48.930Z,100.00
2023-03-01T04:15:55.747Z,100.00
2023-03-01T04:17:02.725Z,100.00
2023-03-01T04:18:10.046Z,100.00
2023-03-01T04:19:13.626Z,100.00
2023-03-01T04:20:26.407Z,100.00
2023-03-01T04:21:32.029Z,100.00
2023-03-01T04:22:35.969Z,100.00
2023-03-01T04:23:42.026Z,100.00
2023-03-01T04:24:45.590Z,100.00
2023-03-01T04:25:56.787Z,100.00
2023-03-01T04:27:00.301Z,100.00
2023-03-01T04:28:05.711Z,100.00
2023-03-01T04:29:11.807Z,100.00
2023-03-01T04:30:15.961Z,100.00
2023-03-01T04:31:25.576Z,100.00
2023-03-01T04:32:31.874Z,100.00
2023-03-01T04:33:37.633Z,100.00
2023-03-01T04:34:41.637Z,100.00
2023-03-01T04:35:50.884Z,100.00
2023-03-01T04:36:54.165Z,100.00
2023-03-01T04:37:59.800Z,100.00
2023-03-01T04:39:13.621Z,100.00
2023-03-01T04:40:17.699Z,100.00
2023-03-01T04:41:25.465Z,100.00
2023-03-01T04:42:28.364Z,100.00
2023-03-01T04:43:36.495Z,100.00
2023-03-01T04:44:40.074Z,100.00
2023-03-01T04:45:46.104Z,100.00
2023-03-01T04:46:51.391Z,100.00
2023-03-01T04:47:59.498Z,100.00
2023-03-01T04:49:02.895Z,100.00
2023-03-01T04:50:09.213Z,100.00
2023-03-01T04:51:14.683Z,100.00
2023-03-01T04:52:20.106Z,100.00
2023-03-01T04:53:23.161Z,100.00
2023-03-01T04:54:29.329Z,100.00
2023-03-01T04:55:32.914Z,100.00
2023-03-01T04:56:38.767Z,100.00
2023-03-01T04:57:42.186Z,100.00
2023-03-01T04:58:48.482Z,100.00
2023-03-01T04:59:52.339Z,100.00
2023-03-01T05:00:58.949Z,100.00
2023-03-01T05:02:01.922Z,100.00
2023-03-01T05:03:09.720Z,100.00
2023-03-01T05:04:16.059Z,100.00
2023-03-01T05:05:19.099Z,100.00
2023-03-01T05:06:25.708Z,100.00
2023-03-01T05:07:29.274Z,100.00
2023-03-01T05:08:35.592Z,100.00
2023-03-01T05:09:38.672Z,100.00
2023-03-01T05:10:44.542Z,100.00
2023-03-01T05:11:48.504Z,100.00
2023-03-01T05:12:54.427Z,100.00
2023-03-01T05:13:57.949Z,100.00
2023-03-01T05:15:08.532Z,100.00
2023-03-01T05:16:13.087Z,100.00
2023-03-01T05:19:29.436Z,100.00
2023-03-01T05:20:32.844Z,100.00
2023-03-01T05:21:59.694Z,100.00
2023-03-01T05:23:06.563Z,100.00
2023-03-01T05:24:13.266Z,100.00
2023-03-01T05:25:19.273Z,100.00
2023-03-01T05:26:29.699Z,100.00
2023-03-01T05:27:32.879Z,100.00
2023-03-01T05:28:39.200Z,100.00
2023-03-01T05:29:42.560Z,100.00
2023-03-01T05:30:48.154Z,100.00
2023-03-01T05:31:52.460Z,100.00
2023-03-01T05:32:59.065Z,100.00
2023-03-01T05:34:03.923Z,100.00
2023-03-01T05:35:14.861Z,100.00
2023-03-01T05:36:20.141Z,100.00
2023-03-01T05:37:23.588Z,100.00
2023-03-01T05:38:30.008Z,100.00
2023-03-01T05:39:33.397Z,100.00
2023-03-01T05:40:38.399Z,100.00
2023-03-01T05:41:41.711Z,100.00
2023-03-01T05:42:50.537Z,100.00
2023-03-01T05:43:52.511Z,100.00
2023-03-01T05:44:57.803Z,100.00
2023-03-01T05:45:59.819Z,100.00
2023-03-01T05:47:04.493Z,100.00
2023-03-01T05:48:10.290Z,100.00
2023-03-01T05:49:14.380Z,100.00
2023-03-01T05:50:23.443Z,100.00
2023-03-01T05:51:25.616Z,100.00
2023-03-01T05:52:30.340Z,100.00
2023-03-01T05:53:35.034Z,100.00
2023-03-01T05:54:37.783Z,100.00
2023-03-01T05:55:43.825Z,100.00
2023-03-01T05:56:46.241Z,100.00
2023-03-01T05:57:52.293Z,100.00
2023-03-01T05:58:54.347Z,100.00
2023-03-01T05:59:58.980Z,100.00
2023-03-01T06:01:03.669Z,100.00
2023-03-01T06:02:05.814Z,100.00
2023-03-01T06:03:10.606Z,100.00
2023-03-01T06:04:12.613Z,100.00
2023-03-01T06:05:17.675Z,100.00
2023-03-01T06:06:22.263Z,100.00
2023-03-01T06:07:26.999Z,100.00
2023-03-01T06:08:29.199Z,100.00
2023-03-01T06:09:33.990Z,100.00
2023-03-01T06:10:36.085Z,100.00
2023-03-01T06:11:41.342Z,100.00
2023-03-01T06:12:44.804Z,100.00
2023-03-01T06:13:50.183Z,100.00
2023-03-01T06:14:52.447Z,100.00
2023-03-01T06:15:57.230Z,100.00
2023-03-01T06:16:59.664Z,100.00
2023-03-01T06:18:04.525Z,100.00
2023-03-01T06:19:06.676Z,100.00
2023-03-01T06:20:14.420Z,100.00
2023-03-01T06:21:19.429Z,100.00
2023-03-01T06:22:24.501Z,100.00
2023-03-01T06:23:29.469Z,100.00
2023-03-01T06:24:31.754Z,100.00
2023-03-01T06:25:37.215Z,100.00
2023-03-01T06:26:39.302Z,100.00
2023-03-01T06:27:44.952Z,100.00
2023-03-01T06:28:47.377Z,100.00
2023-03-01T06:29:52.465Z,100.00
2023-03-01T06:30:54.782Z,100.00
2023-03-01T06:31:59.734Z,100.00
2023-03-01T06:33:02.571Z,100.00
2023-03-01T06:34:07.409Z,100.00
2023-03-01T06:35:11.823Z,100.00
2023-03-01T06:36:19.724Z,100.00
2023-03-01T06:37:24.475Z,100.00
2023-03-01T06:38:29.085Z,100.00
2023-03-01T06:39:31.310Z,100.00
2023-03-01T06:40:36.523Z,100.00
2023-03-01T06:41:38.816Z,100.00
2023-03-01T06:42:45.216Z,100.00
2023-03-01T06:43:47.613Z,100.00
2023-03-01T06:44:52.340Z,100.00
2023-03-01T06:45:54.725Z,100.00
2023-03-01T06:46:59.504Z,100.00
2023-03-01T06:48:06.620Z,100.00
2023-03-01T06:49:11.612Z,100.00
2023-03-01T06:50:15.087Z,100.00
2023-03-01T06:51:19.921Z,100.00
2023-03-01T06:52:24.894Z,100.00
2023-03-01T06:53:29.594Z,100.00
2023-03-01T06:54:31.840Z,100.00
2023-03-01T06:55:36.774Z,100.00
2023-03-01T06:56:38.988Z,100.00
2023-03-01T06:57:43.898Z,100.00
2023-03-01T06:58:46.070Z,100.00
2023-03-01T06:59:51.077Z,100.00
2023-03-01T07:00:53.495Z,100.00
2023-03-01T07:01:58.650Z,100.00
2023-03-01T07:03:03.047Z,100.00
2023-03-01T07:04:08.225Z,100.00
2023-03-01T07:05:13.214Z,100.00
2023-03-01T07:06:15.631Z,100.00
2023-03-01T07:07:21.410Z,100.00
2023-03-01T07:10:21.403Z,100.00
2023-03-01T07:11:26.403Z,100.00
2023-03-01T07:12:28.384Z,100.00
2023-03-01T07:13:33.000Z,100.00
2023-03-01T07:14:35.049Z,100.00
2023-03-01T07:15:39.782Z,100.00
2023-03-01T07:16:41.921Z,100.00
2023-03-01T07:17:48.720Z,100.00
2023-03-01T07:18:53.386Z,100.00
2023-03-01T07:19:55.446Z,100.00
2023-03-01T07:21:00.116Z,100.00
2023-03-01T07:22:05.349Z,100.00
2023-03-01T07:23:08.076Z,100.00
2023-03-01T07:24:13.465Z,100.00
2023-03-01T07:25:18.454Z,100.00
2023-03-01T07:26:25.241Z,100.00
2023-03-01T07:27:28.246Z,100.00
2023-03-01T07:28:37.020Z,100.00
2023-03-01T07:29:41.752Z,100.00
2023-03-01T07:30:43.824Z,100.00
2023-03-01T07:31:48.761Z,100.00
2023-03-01T07:32:55.599Z,100.00
2023-03-01T07:33:57.965Z,100.00
2023-03-01T07:35:02.619Z,100.00
2023-03-01T07:36:08.952Z,100.00
2023-03-01T07:37:11.181Z,100.00
2023-03-01T07:38:15.953Z,100.00
2023-03-01T07:39:19.445Z,100.00
2023-03-01T07:40:27.125Z,100.00
2023-03-01T07:41:31.811Z,100.00
2023-03-01T07:42:33.963Z,100.00
2023-03-01T07:43:38.569Z,100.00
2023-03-01T07:44:40.640Z,100.00
2023-03-01T07:45:45.249Z,100.00
2023-03-01T07:46:47.457Z,100.00
2023-03-01T07:47:53.749Z,100.00
2023-03-01T07:48:59.365Z,100.00
2023-03-01T07:50:04.882Z,100.00
2023-03-01T07:51:08.691Z,100.00
2023-03-01T07:52:14.913Z,100.00
2023-03-01T07:53:17.010Z,100.00
2023-03-01T07:54:21.843Z,100.00
2023-03-01T07:55:29.163Z,100.00
2023-03-01T07:56:31.453Z,100.00
2023-03-01T07:57:36.264Z,100.00
2023-03-01T07:58:39.988Z,100.00
2023-03-01T07:59:44.707Z,100.00
2023-03-01T08:00:46.684Z,100.00
2023-03-01T08:01:51.356Z,100.00
2023-03-01T08:02:56.081Z,100.00
2023-03-01T08:03:58.070Z,100.00
2023-03-01T08:05:02.835Z,100.00
2023-03-01T08:06:07.067Z,100.00
2023-03-01T08:07:11.985Z,100.00
2023-03-01T08:08:13.999Z,100.00
2023-03-01T08:09:18.784Z,100.00
2023-03-01T08:10:20.958Z,100.00
2023-03-01T08:11:29.249Z,100.00
2023-03-01T08:12:33.819Z,100.00
2023-03-01T08:13:36.082Z,100.00
2023-03-01T08:14:40.990Z,100.00
2023-03-01T08:15:43.039Z,100.00
2023-03-01T08:16:47.693Z,100.00
2023-03-01T08:17:51.392Z,100.00
2023-03-01T08:18:57.741Z,100.00
2023-03-01T08:20:02.791Z,100.00
2023-03-01T08:21:08.280Z,100.00
2023-03-01T08:22:12.984Z,100.00
2023-03-01T08:23:15.094Z,100.00
2023-03-01T08:24:19.839Z,97.01
2023-03-01T08:25:21.908Z,93.72
2023-03-01T08:26:29.293Z,88.81
2023-03-01T08:27:34.075Z,89.72
2023-03-01T08:28:38.984Z,85.24
2023-03-01T08:29:43.654Z,82.61
2023-03-01T08:30:48.484Z,79.13
2023-03-01T08:31:53.201Z,77.81
2023-03-01T08:32:55.861Z,76.26
2023-03-01T08:34:03.829Z,75.47
2023-03-01T08:35:09.543Z,72.19
2023-03-01T08:36:11.629Z,70.59
2023-03-01T08:37:16.253Z,68.54
2023-03-01T08:38:20.828Z,67.20
2023-03-01T08:39:25.546Z,66.99
2023-03-01T08:40:27.655Z,67.17
2023-03-01T08:41:34.879Z,66.68
2023-03-01T08:42:37.646Z,65.36
2023-03-01T08:43:42.340Z,64.22
2023-03-01T08:44:47.117Z,64.12
2023-03-01T08:45:49.881Z,62.78
2023-03-01T08:46:56.714Z,62.46
2023-03-01T08:47:58.837Z,61.48
2023-03-01T08:49:03.848Z,60.47
2023-03-01T08:50:09.850Z,60.25
2023-03-01T08:51:13.704Z,60.07
2023-03-01T08:52:18.315Z,59.45
2023-03-01T08:53:20.289Z,58.54
2023-03-01T08:54:26.112Z,57.72
2023-03-01T08:55:30.718Z,59.01
2023-03-01T08:56:38.093Z,57.93
2023-03-01T08:57:40.072Z,57.16
2023-03-01T08:58:48.065Z,56.84
2023-03-01T08:59:50.148Z,56.60
2023-03-01T09:00:54.813Z,56.37
2023-03-01T09:01:56.789Z,54.93
2023-03-01T09:03:01.363Z,54.12
2023-03-01T09:04:06.163Z,55.17
2023-03-01T09:05:09.265Z,53.82
2023-03-01T09:06:15.587Z,53.04
2023-03-01T09:07:20.183Z,52.89
2023-03-01T09:08:22.267Z,51.39
2023-03-01T09:09:26.945Z,51.08
2023-03-01T09:10:31.745Z,50.71
2023-03-01T09:11:38.992Z,52.42
2023-03-01T09:12:43.626Z,50.31
2023-03-01T09:13:45.975Z,50.59
2023-03-01T09:14:50.673Z,50.46
2023-03-01T09:15:52.853Z,51.12
2023-03-01T09:16:57.850Z,50.32
2023-03-01T09:18:00.401Z,50.21
2023-03-01T09:19:05.257Z,50.00
2023-03-01T09:20:08.114Z,49.70
2023-03-01T09:21:15.196Z,49.98
2023-03-01T09:22:19.869Z,48.84
2023-03-01T09:23:22.000Z,48.13
2023-03-01T09:24:28.278Z,49.45
2023-03-01T09:25:33.105Z,48.40
2023-03-01T09:26:40.523Z,49.11
2023-03-01T09:27:45.189Z,49.43
2023-03-01T09:28:48.075Z,49.25
2023-03-01T09:29:52.679Z,49.09
2023-03-01T09:30:57.278Z,48.51
2023-03-01T09:32:01.897Z,48.16
2023-03-01T09:33:04.016Z,46.73
2023-03-01T09:34:09.508Z,47.39
2023-03-01T09:35:12.037Z,46.78
2023-03-01T09:36:18.729Z,46.30
2023-03-01T09:37:20.836Z,46.71
2023-03-01T09:38:26.668Z,45.05
2023-03-01T09:39:33.063Z,45.29
2023-03-01T09:40:37.815Z,44.44
2023-03-01T09:41:51.115Z,44.08
2023-03-01T09:43:04.018Z,44.73
2023-03-01T09:44:12.346Z,42.89
2023-03-01T09:45:28.064Z,43.92
2023-03-01T09:46:46.225Z,43.22
2023-03-01T09:47:49.692Z,42.85
2023-03-01T09:48:59.014Z,42.38
2023-03-01T09:50:10.326Z,42.05
2023-03-01T09:51:19.576Z,43.73
2023-03-01T09:52:32.139Z,43.38
2023-03-01T09:53:36.227Z,42.35
2023-03-01T09:54:41.363Z,42.04
2023-03-01T09:55:49.656Z,41.81
2023-03-01T09:57:07.964Z,41.94
2023-03-01T09:58:32.054Z,40.46
2023-03-01T09:59:46.057Z,40.52
2023-03-01T10:00:53.548Z,40.67
2023-03-01T10:02:03.909Z,40.21
2023-03-01T10:03:18.464Z,42.04
2023-03-01T10:04:43.087Z,41.10
2023-03-01T10:05:51.224Z,42.20
2023-03-01T10:07:06.262Z,41.41
2023-03-01T10:08:32.119Z,41.57
2023-03-01T10:09:38.825Z,44.23
2023-03-01T10:10:44.757Z,41.68
2023-03-01T10:11:52.659Z,42.09
2023-03-01T10:12:58.450Z,43.31
2023-03-01T10:14:06.970Z,42.70
2023-03-01T10:15:18.822Z,43.43
2023-03-01T10:16:30.892Z,41.84
2023-03-01T10:17:41.234Z,41.45
2023-03-01T10:18:47.948Z,41.32
2023-03-01T10:19:52.885Z,42.08
2023-03-01T10:21:01.138Z,40.84
2023-03-01T10:22:15.269Z,40.63
2023-03-01T10:23:17.331Z,40.91
2023-03-01T10:24:23.811Z,41.12
2023-03-01T10:25:45.068Z,42.82
2023-03-01T10:26:55.091Z,41.45
2023-03-01T10:28:09.117Z,43.37
2023-03-01T10:29:15.707Z,42.15
2023-03-01T10:30:23.742Z,43.04
2023-03-01T10:31:38.256Z,41.71
2023-03-01T10:32:43.744Z,41.45
2023-03-01T10:33:49.065Z,39.78
2023-03-01T10:34:53.676Z,40.47
2023-03-01T10:35:55.978Z,41.00
2023-03-01T10:37:04.854Z,41.07
2023-03-01T10:38:09.703Z,40.80
2023-03-01T10:39:20.406Z,41.23
2023-03-01T10:40:23.441Z,41.51
2023-03-01T10:41:30.313Z,42.75
2023-03-01T10:42:37.001Z,40.23
2023-03-01T10:43:47.286Z,41.03
2023-03-01T10:44:53.126Z,40.51
2023-03-01T10:45:57.913Z,39.71
2023-03-01T10:47:01.773Z,39.36
2023-03-01T10:48:15.929Z,40.21
2023-03-01T10:49:24.026Z,40.55
2023-03-01T10:50:28.634Z,40.55
2023-03-01T10:51:31.037Z,39.09
2023-03-01T10:52:38.570Z,39.44
2023-03-01T10:53:46.526Z,39.62
2023-03-01T10:54:57.737Z,39.08
2023-03-01T10:56:10.890Z,38.38
2023-03-01T10:57:32.227Z,37.83
2023-03-01T10:58:37.722Z,38.79
2023-03-01T10:59:42.388Z,38.77
2023-03-01T11:00:53.756Z,39.25
2023-03-01T11:02:25.645Z,39.02
2023-03-01T11:03:32.605Z,40.71
2023-03-01T11:04:34.797Z,39.92
2023-03-01T11:05:39.731Z,39.07
2023-03-01T11:06:45.848Z,40.38
2023-03-01T11:07:49.186Z,40.23
2023-03-01T11:08:55.262Z,41.39
2023-03-01T11:09:57.507Z,40.58
2023-03-01T11:11:11.108Z,40.61
2023-03-01T11:12:19.152Z,41.10
2023-03-01T11:13:21.885Z,41.92
2023-03-01T11:14:29.121Z,41.21
2023-03-01T11:15:33.907Z,41.25
2023-03-01T11:16:40.300Z,41.41
2023-03-01T11:17:54.550Z,40.44
2023-03-01T11:19:02.316Z,40.84
2023-03-01T11:20:20.089Z,40.20
2023-03-01T11:21:22.206Z,40.37
2023-03-01T11:22:27.416Z,40.36
2023-03-01T11:23:34.532Z,40.56
2023-03-01T11:24:43.848Z,42.73
2023-03-01T11:25:55.666Z,40.12
2023-03-01T11:27:01.053Z,40.27
2023-03-01T11:28:07.999Z,39.78
2023-03-01T11:29:18.964Z,41.09
2023-03-01T11:30:27.933Z,41.06
2023-03-01T11:31:39.084Z,39.50
2023-03-01T11:32:49.264Z,39.34
2023-03-01T11:33:56.986Z,39.13
2023-03-01T11:35:09.250Z,39.35
2023-03-01T11:36:21.373Z,38.27
2023-03-01T11:37:36.158Z,39.06
2023-03-01T11:38:42.580Z,38.36
2023-03-01T11:39:53.037Z,37.37
2023-03-01T11:41:06.514Z,38.63
2023-03-01T11:42:19.058Z,38.46
2023-03-01T11:43:30.586Z,38.17
2023-03-01T11:44:37.536Z,39.17
2023-03-01T11:45:51.341Z,39.32
2023-03-01T11:47:16.071Z,38.67
2023-03-01T11:48:49.528Z,38.91
2023-03-01T11:50:22.395Z,39.60
2023-03-01T11:51:34.059Z,39.36
2023-03-01T11:52:52.383Z,37.26
2023-03-01T11:54:22.711Z,37.05
2023-03-01T11:55:57.337Z,37.56
2023-03-01T11:57:06.348Z,40.02
2023-03-01T11:58:40.631Z,38.56
2023-03-01T12:00:24.139Z,37.51
2023-03-01T12:01:48.371Z,37.75
2023-03-01T12:03:19.977Z,38.92
2023-03-01T12:05:00.527Z,38.79
2023-03-01T12:06:12.581Z,37.89
2023-03-01T12:07:26.193Z,38.75
2023-03-01T12:08:35.011Z,38.33
2023-03-01T12:10:02.308Z,40.04
2023-03-01T12:11:17.149Z,40.08
2023-03-01T12:12:50.765Z,39.50
2023-03-01T12:14:10.533Z,38.45
2023-03-01T12:15:42.037Z,38.39
2023-03-01T12:17:04.680Z,40.12
2023-03-01T12:18:29.530Z,38.33
2023-03-01T12:19:47.213Z,37.98
2023-03-01T12:21:01.005Z,39.21
2023-03-01T12:22:30.160Z,39.77
2023-03-01T12:24:05.108Z,39.11
2023-03-01T12:25:34.973Z,38.33
2023-03-01T12:26:43.730Z,38.22
2023-03-01T12:28:11.872Z,37.82
2023-03-01T12:29:28.988Z,37.26
2023-03-01T12:30:44.803Z,38.32
2023-03-01T12:32:25.793Z,37.90
2023-03-01T12:33:45.981Z,37.67
2023-03-01T12:35:35.257Z,40.32
2023-03-01T12:37:02.133Z,37.96
2023-03-01T12:38:23.497Z,38.58
2023-03-01T12:39:43.681Z,39.07
2023-03-01T12:41:10.303Z,38.97
2023-03-01T12:42:25.956Z,38.63
2023-03-01T12:43:45.495Z,38.53
2023-03-01T12:45:03.145Z,37.73
2023-03-01T12:46:19.356Z,38.02
2023-03-01T12:47:45.957Z,38.74
2023-03-01T12:49:04.550Z,39.27
2023-03-01T12:50:19.542Z,39.29
2023-03-01T12:51:25.980Z,39.62
2023-03-01T12:52:41.029Z,38.59
2023-03-01T12:53:49.162Z,38.95
2023-03-01T12:54:54.612Z,39.06
2023-03-01T12:56:04.779Z,38.32
2023-03-01T12:57:20.591Z,37.73
2023-03-01T12:58:37.081Z,39.58
2023-03-01T13:00:05.890Z,38.56
2023-03-01T13:01:24.997Z,37.97
2023-03-01T13:02:37.022Z,37.94
2023-03-01T13:03:57.560Z,38.62
2023-03-01T13:05:20.503Z,37.44
2023-03-01T13:06:38.146Z,37.06
2023-03-01T13:07:57.201Z,37.21
2023-03-01T13:09:07.704Z,36.47
2023-03-01T13:10:24.042Z,37.96
2023-03-01T13:11:26.202Z,36.59
2023-03-01T13:12:53.526Z,36.29
2023-03-01T13:14:39.608Z,36.12
2023-03-01T13:15:45.028Z,36.46
2023-03-01T13:16:50.304Z,37.02
2023-03-01T13:17:56.318Z,36.22
2023-03-01T13:19:17.792Z,36.82
2023-03-01T13:20:22.253Z,36.68
2023-03-01T13:21:35.208Z,36.05
2023-03-01T13:22:49.802Z,38.53
2023-03-01T13:23:57.957Z,37.77
2023-03-01T13:25:14.320Z,36.75
2023-03-01T13:26:20.972Z,35.79
2023-03-01T13:27:26.206Z,36.41
2023-03-01T13:28:50.202Z,35.10
2023-03-01T13:29:57.073Z,34.16
2023-03-01T13:30:59.925Z,34.20
2023-03-01T13:32:05.795Z,35.09
2023-03-01T13:33:52.690Z,33.92
2023-03-01T13:35:05.860Z,34.51
2023-03-01T13:36:09.787Z,33.74
2023-03-01T13:37:23.243Z,32.82
2023-03-01T13:38:50.334Z,32.92
2023-03-01T13:39:52.534Z,33.40
2023-03-01T13:41:04.142Z,33.50
2023-03-01T13:42:29.797Z,33.21
2023-03-01T13:43:36.488Z,32.64
2023-03-01T13:44:40.016Z,32.51
2023-03-01T13:45:46.927Z,31.81
2023-03-01T13:46:49.545Z,32.77
2023-03-01T13:47:59.360Z,32.37
2023-03-01T13:49:04.884Z,30.97
2023-03-01T13:50:19.977Z,30.94
2023-03-01T13:51:29.119Z,30.62
2023-03-01T13:52:43.272Z,30.46
2023-03-01T13:53:50.812Z,29.95
2023-03-01T13:54:54.108Z,30.90
2023-03-01T13:56:02.316Z,31.19
2023-03-01T13:57:07.495Z,31.22
2023-03-01T13:58:20.817Z,30.63
2023-03-01T13:59:27.422Z,30.10
2023-03-01T14:00:36.241Z,30.88
2023-03-01T14:01:43.679Z,29.52
2023-03-01T14:02:46.093Z,29.97
2023-03-01T14:03:50.773Z,30.56
2023-03-01T14:04:58.317Z,30.30
2023-03-01T14:06:15.944Z,29.40
2023-03-01T14:07:25.267Z,29.47
2023-03-01T14:08:30.268Z,30.00
2023-03-01T14:09:35.578Z,29.56
2023-03-01T14:10:52.451Z,29.37
2023-03-01T14:12:20.241Z,29.62
2023-03-01T14:13:40.140Z,29.10
2023-03-01T14:14:52.220Z,30.78
2023-03-01T14:16:18.645Z,29.85
2023-03-01T14:17:38.592Z,30.95
2023-03-01T14:18:53.234Z,31.06
2023-03-01T14:20:01.040Z,31.56
2023-03-01T14:21:11.696Z,31.88
2023-03-01T14:22:20.450Z,30.86
2023-03-01T14:23:28.060Z,31.23
2023-03-01T14:24:33.638Z,30.63
2023-03-01T14:25:40.076Z,30.71
2023-03-01T14:26:42.170Z,30.89